Huvudsida
METAR-TAF:

METAR-TAF

Flygplatser :

Kärrdals flygplats

Kärrdal, Estland

latitud: 58-59N, longitud: 022-49E, höjd: 5 m

Aktuellt väderrapport

Denna rapport gjordes för 5 timmar och 2 minuter sedan, klockan 07:50 UTC
Vind 5 kt från sydväst
Temperatur 23°C
Fuktighet 69%
Tryck 1015 hPa
Sikt 10 km eller mer
Få moln på en höjd av 2100 ft

METAR: EEKA 180750Z 22005KT 9999 FEW021 23/17 Q1015

Tid: 15:52 (12:52 UTC)


TAF: saknas

Aktuella väderrapporter och prognoser från 4000 flygplatser (METAR- och TAF-rapporter).

De tillgängliga stationerna syns som gula och röda prickar på kartan.

För musen över prickarna för att se namnen på stationerna.

Klicka sedan för att få väderrapporter och prognoser.

För att ändra kartan: Klicka på de gröna knapparna med ett svart kors på för att zooma in; den gröna knappen med ett streck på för att zooma ut; eller på de gröna pilarna för angränsande kartor.


METAR-TAF: